AirNav   Air Wisconsin Up To $57,000 Bonus
 
 977 users online  

7U8 Richey Airport
Richey, Montana, USA

GOING TO RICHEY?


FAA INFORMATION EFFECTIVE 25 FEBRUARY 2021

Location

FAA Identifier: 7U8
Lat/Long: 47-37-35.1000N 105-04-46.5000W
47-37.585000N 105-04.775000W
47.6264167,-105.0795833
(estimated)
Elevation: 2494 ft. / 760.2 m (surveyed)
Variation: 13E (1985)
From city: 1 mile SW of RICHEY, MT
Time zone: UTC -7 (UTC -6 during Daylight Saving Time)
Zip code: 59259

Airport Operations

Airport use: Open to the public
Control tower: no
ARTCC: SALT LAKE CITY CENTER
FSS: GREAT FALLS FLIGHT SERVICE STATION
NOTAMs facility: GTF (NOTAM-D service available)
Attendance: UNATNDD
Wind indicator: yes
Segmented circle: yes

Airport Communications

CTAF: 122.9

Airport Services

Parking: tiedowns
Airframe service: NONE
Powerplant service: NONE
Bottled oxygen: NONE
Bulk oxygen: NONE

Runway Information

Runway 14/32

Dimensions: 2690 x 75 ft. / 820 x 23 m
Surface: turf/dirt, in poor condition
AER 14 HAS DIP OBSCURED BY GRASS PRIOR TO THR.
RUNWAY 14  RUNWAY 32
Latitude: 47-37.778832N47-37.390750N
Longitude: 105-04.933067W105-04.618338W
Elevation: 2494.0 ft.2494.0 ft.
Traffic pattern: leftleft
Runway heading: 138 magnetic, 151 true318 magnetic, 331 true
Obstructions: none96 ft. hill, 1837 ft. from runway, 19:1 slope to clear

Airport Ownership and Management from official FAA records

Ownership: Publicly-owned
Owner: MONTANA AERONAUTICS DIVISION
PO BOX 200507
HELENA, MT 59620-0507
Phone 406-444-2506
Manager: TIM CONWAY
BOX 200507
HELENA, MT 59620
Phone 406-444-2506

Airport Operational Statistics

Aircraft based on the field: 1
Single engine airplanes: 1
    
Aircraft operations: 25/year *
80% local general aviation
20% transient general aviation
* for 12-month period ending 05 June 2019

Additional Remarks

NO SNOW REMOVAL.
FOR CD CTC SALT LAKE ARTCC AT 801-320-2568.

Instrument Procedures

There are no published instrument procedures at 7U8.

Some nearby airports with instrument procedures:

4U6 - Circle Town County Airport (23 nm SW)
PO1 - Poplar Municipal Airport (31 nm N)
KGDV - Dawson Community Airport (31 nm S)
KOLF - L M Clayton Airport (34 nm NW)
KSDY - Sidney-Richland Regional Airport (36 nm E)
 
Loc | Ops | Rwys | IFR | FBO | Links
Com | Nav | Svcs | Stats | Notes
Area around 7U8 (Richey Airport)
 
Road maps at: MapQuest Bing Google
 
Aerial photo
WARNING: Photo may not be current or correct
Aerial photo of 7U8 (Richey Airport)
Taken in August 2007

Do you have a better or more recent aerial photo of Richey Airport that you would like to share? If so, please send us your photo.

 
Sectional chart

 
Airport distance calculator
Flying to Richey Airport? Find the distance to fly.

From to 7U8

Sunrise and sunset
Times for 08-Mar-2021
 Local
(UTC-7)
 Zulu
(UTC)
Morning civil twilight05:5812:58
Sunrise06:2813:28
Sunset17:5400:54
Evening civil twilight18:2501:25

Current date and time
Zulu (UTC)  08-Mar-2021 13:49:09
Local (UTC-7)  08-Mar-2021 06:49:09
 
METAR
K4U6 
23nm SW 
081310Z AUTO 00000KT 10SM M07/M08 A3004 RMK A01 Circle
KPO1 
31nm N 
081315Z AUTO 00000KT 10SM M03/M07 A3005
KGDV 
33nm S 
081256Z AUTO 25003KT 10SM CLR M02/M06 A3006 RMK AO2 SLP200 T10221061 FZRANO
KOLF 
35nm NW 
081253Z AUTO 00000KT 10SM OVC100 M07/M08 A3007 RMK AO2 SLP205 T10671083
KSDY 
36nm E 
081256Z AUTO 00000KT 10SM CLR M06/M08 A3007 RMK AO2 SLP212 T10561083 FZRANO
TAF
KGDV 
33nm S 
081120Z 0812/0912 VRB06KT P6SM SCT060 FM081400 VRB06KT P6SM FEW090 WS020/17035KT FM081700 VRB06KT P6SM SCT150 FM091000 31009KT P6SM BKN070
KOLF 
35nm NW 
081120Z 0812/0912 VRB06KT P6SM BKN080 FM082300 02012G21KT P6SM BKN120 FM091000 34012KT P6SM BKN018 PROB30 0911/0912 1SM -SN OVC010
KSDY 
36nm E 
081120Z 0812/0912 VRB06KT P6SM SCT060
NOTAMs
Click for the latest NOTAMs
NOTAMs are issued by the DoD/FAA and will open in a separate window not controlled by AirNav.

 

 
 

Would you like to see your business listed on this page?

 If your business provides an interesting product or service to pilots, flight crews, aircraft, or users of the Richey Airport, you should consider listing it here.  To start the listing process, click on the button below
 
Add a business
 

Other Pages about Richey Airport

Update a link
 
Copyright © AirNav, LLC. All rights reserved. Privacy Policy  Contact